sensor_id;sensor_type;location;lat;lon;timestamp;P1;durP1;ratioP1;P2;durP2;ratioP2
10596;SDS011;5346;48.766;8.674;2022-07-29T00:00:29;6.95;;;6.30;;
10596;SDS011;5346;48.766;8.674;2022-07-29T00:03:06;6.63;;;6.03;;
10596;SDS011;5346;48.766;8.674;2022-07-29T00:05:41;9.35;;;6.75;;
10596;SDS011;5346;48.766;8.674;2022-07-29T00:08:09;8.57;;;6.82;;
10596;SDS011;5346;48.766;8.674;2022-07-29T00:10:38;9.88;;;6.60;;
10596;SDS011;5346;48.766;8.674;2022-07-29T00:13:18;7.40;;;6.70;;
10596;SDS011;5346;48.766;8.674;2022-07-29T00:15:59;7.65;;;6.35;;
10596;SDS011;5346;48.766;8.674;2022-07-29T00:18:35;7.45;;;6.38;;
10596;SDS011;5346;48.766;8.674;2022-07-29T00:21:03;6.78;;;5.78;;
10596;SDS011;5346;48.766;8.674;2022-07-29T00:23:31;6.40;;;5.90;;
10596;SDS011;5346;48.766;8.674;2022-07-29T00:26:05;8.57;;;6.80;;
10596;SDS011;5346;48.766;8.674;2022-07-29T00:28:33;6.90;;;6.30;;
10596;SDS011;5346;48.766;8.674;2022-07-29T00:31:01;8.10;;;6.20;;
10596;SDS011;5346;48.766;8.674;2022-07-29T00:33:35;8.50;;;6.22;;
10596;SDS011;5346;48.766;8.674;2022-07-29T00:36:03;7.28;;;6.40;;
10596;SDS011;5346;48.766;8.674;2022-07-29T00:38:31;7.72;;;6.10;;
10596;SDS011;5346;48.766;8.674;2022-07-29T00:41:05;9.57;;;6.03;;
10596;SDS011;5346;48.766;8.674;2022-07-29T00:43:33;8.68;;;6.25;;
10596;SDS011;5346;48.766;8.674;2022-07-29T00:46:00;6.82;;;5.93;;
10596;SDS011;5346;48.766;8.674;2022-07-29T00:48:34;5.85;;;5.28;;
10596;SDS011;5346;48.766;8.674;2022-07-29T00:51:02;6.10;;;5.50;;
10596;SDS011;5346;48.766;8.674;2022-07-29T00:53:31;6.07;;;5.50;;
10596;SDS011;5346;48.766;8.674;2022-07-29T00:56:06;8.68;;;5.55;;
10596;SDS011;5346;48.766;8.674;2022-07-29T00:58:34;5.97;;;5.38;;
10596;SDS011;5346;48.766;8.674;2022-07-29T01:01:02;6.13;;;5.28;;
10596;SDS011;5346;48.766;8.674;2022-07-29T01:03:36;8.00;;;5.57;;
10596;SDS011;5346;48.766;8.674;2022-07-29T01:06:03;6.32;;;5.68;;
10596;SDS011;5346;48.766;8.674;2022-07-29T01:08:31;8.10;;;5.82;;
10596;SDS011;5346;48.766;8.674;2022-07-29T01:11:07;6.18;;;5.57;;
10596;SDS011;5346;48.766;8.674;2022-07-29T01:13:42;7.43;;;5.30;;
10596;SDS011;5346;48.766;8.674;2022-07-29T01:16:25;5.32;;;4.82;;
10596;SDS011;5346;48.766;8.674;2022-07-29T01:28:56;6.55;;;5.35;;
10596;SDS011;5346;48.766;8.674;2022-07-29T01:31:27;7.55;;;5.68;;
10596;SDS011;5346;48.766;8.674;2022-07-29T01:34:29;6.38;;;4.78;;
10596;SDS011;5346;48.766;8.674;2022-07-29T01:37:28;6.95;;;5.13;;
10596;SDS011;5346;48.766;8.674;2022-07-29T01:40:14;5.45;;;4.95;;
10596;SDS011;5346;48.766;8.674;2022-07-29T01:42:57;4.72;;;4.32;;
10596;SDS011;5346;48.766;8.674;2022-07-29T01:45:48;4.40;;;4.00;;
10596;SDS011;5346;48.766;8.674;2022-07-29T01:51:16;4.60;;;3.72;;
10596;SDS011;5346;48.766;8.674;2022-07-29T01:56:58;5.15;;;3.80;;
10596;SDS011;5346;48.766;8.674;2022-07-29T01:59:28;4.35;;;3.95;;
10596;SDS011;5346;48.766;8.674;2022-07-29T02:01:57;5.53;;;3.60;;
10596;SDS011;5346;48.766;8.674;2022-07-29T02:04:31;4.50;;;3.50;;
10596;SDS011;5346;48.766;8.674;2022-07-29T02:07:03;3.95;;;3.50;;
10596;SDS011;5346;48.766;8.674;2022-07-29T02:09:39;4.40;;;3.63;;
10596;SDS011;5346;48.766;8.674;2022-07-29T02:12:08;4.25;;;3.85;;
10596;SDS011;5346;48.766;8.674;2022-07-29T02:15:02;4.10;;;3.58;;
10596;SDS011;5346;48.766;8.674;2022-07-29T02:17:44;6.63;;;3.75;;
10596;SDS011;5346;48.766;8.674;2022-07-29T02:20:23;4.32;;;3.53;;
10596;SDS011;5346;48.766;8.674;2022-07-29T02:22:54;4.65;;;3.42;;
10596;SDS011;5346;48.766;8.674;2022-07-29T02:25:32;3.60;;;3.30;;
10596;SDS011;5346;48.766;8.674;2022-07-29T02:28:03;3.67;;;3.28;;
10596;SDS011;5346;48.766;8.674;2022-07-29T02:30:40;2.63;;;2.42;;
10596;SDS011;5346;48.766;8.674;2022-07-29T02:33:16;5.93;;;3.13;;
10596;SDS011;5346;48.766;8.674;2022-07-29T02:35:51;4.65;;;3.20;;
10596;SDS011;5346;48.766;8.674;2022-07-29T02:38:20;2.97;;;2.78;;
10596;SDS011;5346;48.766;8.674;2022-07-29T02:41:16;3.92;;;3.30;;
10596;SDS011;5346;48.766;8.674;2022-07-29T02:44:03;4.43;;;2.92;;
10596;SDS011;5346;48.766;8.674;2022-07-29T02:50:03;4.28;;;3.20;;
10596;SDS011;5346;48.766;8.674;2022-07-29T02:52:52;3.33;;;3.03;;
10596;SDS011;5346;48.766;8.674;2022-07-29T02:58:33;5.65;;;3.40;;
10596;SDS011;5346;48.766;8.674;2022-07-29T03:01:11;3.42;;;3.13;;
10596;SDS011;5346;48.766;8.674;2022-07-29T03:03:53;3.70;;;3.35;;
10596;SDS011;5346;48.766;8.674;2022-07-29T03:06:22;4.03;;;3.63;;
10596;SDS011;5346;48.766;8.674;2022-07-29T03:09:04;3.40;;;3.10;;
10596;SDS011;5346;48.766;8.674;2022-07-29T03:11:41;4.93;;;3.75;;
10596;SDS011;5346;48.766;8.674;2022-07-29T03:14:24;4.32;;;3.40;;
10596;SDS011;5346;48.766;8.674;2022-07-29T03:16:59;4.78;;;3.90;;
10596;SDS011;5346;48.766;8.674;2022-07-29T03:19:28;4.90;;;4.00;;
10596;SDS011;5346;48.766;8.674;2022-07-29T03:21:57;4.38;;;3.95;;
10596;SDS011;5346;48.766;8.674;2022-07-29T03:24:33;5.13;;;4.20;;
10596;SDS011;5346;48.766;8.674;2022-07-29T03:27:02;4.90;;;4.38;;
10596;SDS011;5346;48.766;8.674;2022-07-29T03:29:31;5.43;;;3.97;;
10596;SDS011;5346;48.766;8.674;2022-07-29T03:32:08;6.55;;;4.70;;
10596;SDS011;5346;48.766;8.674;2022-07-29T03:34:40;5.38;;;4.88;;
10596;SDS011;5346;48.766;8.674;2022-07-29T03:37:16;4.80;;;4.38;;
10596;SDS011;5346;48.766;8.674;2022-07-29T03:39:44;4.70;;;4.30;;
10596;SDS011;5346;48.766;8.674;2022-07-29T03:42:13;5.50;;;4.90;;
10596;SDS011;5346;48.766;8.674;2022-07-29T03:44:54;5.85;;;4.70;;
10596;SDS011;5346;48.766;8.674;2022-07-29T03:47:24;6.78;;;4.97;;
10596;SDS011;5346;48.766;8.674;2022-07-29T03:50:16;5.30;;;4.80;;
10596;SDS011;5346;48.766;8.674;2022-07-29T03:52:47;9.25;;;5.10;;
10596;SDS011;5346;48.766;8.674;2022-07-29T03:55:22;6.70;;;5.32;;
10596;SDS011;5346;48.766;8.674;2022-07-29T03:57:51;6.00;;;4.90;;
10596;SDS011;5346;48.766;8.674;2022-07-29T04:00:21;6.25;;;5.43;;
10596;SDS011;5346;48.766;8.674;2022-07-29T04:02:59;5.93;;;5.38;;
10596;SDS011;5346;48.766;8.674;2022-07-29T04:05:27;7.65;;;5.80;;
10596;SDS011;5346;48.766;8.674;2022-07-29T04:07:55;9.25;;;6.22;;
10596;SDS011;5346;48.766;8.674;2022-07-29T04:10:32;5.55;;;5.03;;
10596;SDS011;5346;48.766;8.674;2022-07-29T04:13:02;6.60;;;5.50;;
10596;SDS011;5346;48.766;8.674;2022-07-29T04:15:49;5.88;;;5.38;;
10596;SDS011;5346;48.766;8.674;2022-07-29T04:18:18;5.78;;;5.15;;
10596;SDS011;5346;48.766;8.674;2022-07-29T04:20:52;6.20;;;5.35;;
10596;SDS011;5346;48.766;8.674;2022-07-29T04:23:21;5.82;;;5.32;;
10596;SDS011;5346;48.766;8.674;2022-07-29T04:25:48;6.47;;;5.63;;
10596;SDS011;5346;48.766;8.674;2022-07-29T04:28:24;8.90;;;5.55;;
10596;SDS011;5346;48.766;8.674;2022-07-29T04:30:52;6.25;;;5.47;;
10596;SDS011;5346;48.766;8.674;2022-07-29T04:33:20;6.47;;;5.72;;
10596;SDS011;5346;48.766;8.674;2022-07-29T04:35:53;7.72;;;5.43;;
10596;SDS011;5346;48.766;8.674;2022-07-29T04:38:28;5.38;;;4.88;;
10596;SDS011;5346;48.766;8.674;2022-07-29T04:41:01;5.45;;;4.95;;
10596;SDS011;5346;48.766;8.674;2022-07-29T04:43:31;5.65;;;5.15;;
10596;SDS011;5346;48.766;8.674;2022-07-29T04:46:03;11.38;;;5.60;;
10596;SDS011;5346;48.766;8.674;2022-07-29T04:48:39;5.97;;;5.38;;
10596;SDS011;5346;48.766;8.674;2022-07-29T04:51:06;5.85;;;5.28;;
10596;SDS011;5346;48.766;8.674;2022-07-29T04:53:34;6.57;;;5.55;;
10596;SDS011;5346;48.766;8.674;2022-07-29T04:56:10;7.18;;;6.30;;
10596;SDS011;5346;48.766;8.674;2022-07-29T04:58:37;6.15;;;5.57;;
10596;SDS011;5346;48.766;8.674;2022-07-29T05:01:05;7.63;;;6.30;;
10596;SDS011;5346;48.766;8.674;2022-07-29T05:03:40;6.95;;;6.05;;
10596;SDS011;5346;48.766;8.674;2022-07-29T05:06:09;6.50;;;5.90;;
10596;SDS011;5346;48.766;8.674;2022-07-29T05:08:36;9.50;;;6.05;;
10596;SDS011;5346;48.766;8.674;2022-07-29T05:11:11;7.28;;;5.97;;
10596;SDS011;5346;48.766;8.674;2022-07-29T05:13:44;8.88;;;5.68;;
10596;SDS011;5346;48.766;8.674;2022-07-29T05:16:33;6.35;;;5.75;;
10596;SDS011;5346;48.766;8.674;2022-07-29T05:19:01;6.38;;;5.68;;
10596;SDS011;5346;48.766;8.674;2022-07-29T05:21:39;5.85;;;5.35;;
10596;SDS011;5346;48.766;8.674;2022-07-29T05:24:07;8.32;;;7.45;;
10596;SDS011;5346;48.766;8.674;2022-07-29T05:26:35;6.20;;;5.60;;
10596;SDS011;5346;48.766;8.674;2022-07-29T05:29:09;5.90;;;5.38;;
10596;SDS011;5346;48.766;8.674;2022-07-29T05:31:57;5.65;;;5.15;;
10596;SDS011;5346;48.766;8.674;2022-07-29T05:34:31;5.45;;;4.95;;
10596;SDS011;5346;48.766;8.674;2022-07-29T05:36:58;6.00;;;5.47;;
10596;SDS011;5346;48.766;8.674;2022-07-29T05:39:26;5.78;;;5.28;;
10596;SDS011;5346;48.766;8.674;2022-07-29T05:42:15;8.20;;;5.47;;
10596;SDS011;5346;48.766;8.674;2022-07-29T05:44:43;6.47;;;5.88;;
10596;SDS011;5346;48.766;8.674;2022-07-29T05:47:17;6.03;;;5.40;;
10596;SDS011;5346;48.766;8.674;2022-07-29T05:49:44;9.73;;;6.38;;
10596;SDS011;5346;48.766;8.674;2022-07-29T05:52:12;6.50;;;5.55;;
10596;SDS011;5346;48.766;8.674;2022-07-29T05:54:47;7.88;;;5.57;;
10596;SDS011;5346;48.766;8.674;2022-07-29T05:57:15;5.90;;;5.25;;
10596;SDS011;5346;48.766;8.674;2022-07-29T05:59:44;6.82;;;5.38;;
10596;SDS011;5346;48.766;8.674;2022-07-29T06:02:19;5.90;;;5.40;;
10596;SDS011;5346;48.766;8.674;2022-07-29T06:04:46;5.80;;;5.20;;
10596;SDS011;5346;48.766;8.674;2022-07-29T06:07:15;5.78;;;5.22;;
10596;SDS011;5346;48.766;8.674;2022-07-29T06:09:49;5.47;;;4.97;;
10596;SDS011;5346;48.766;8.674;2022-07-29T06:12:16;6.55;;;4.70;;
10596;SDS011;5346;48.766;8.674;2022-07-29T06:14:44;6.07;;;5.45;;
10596;SDS011;5346;48.766;8.674;2022-07-29T06:17:26;5.55;;;5.05;;
10596;SDS011;5346;48.766;8.674;2022-07-29T06:19:53;5.95;;;5.35;;
10596;SDS011;5346;48.766;8.674;2022-07-29T06:22:21;5.50;;;5.10;;
10596;SDS011;5346;48.766;8.674;2022-07-29T06:24:55;5.45;;;4.95;;
10596;SDS011;5346;48.766;8.674;2022-07-29T06:27:22;6.88;;;5.20;;
10596;SDS011;5346;48.766;8.674;2022-07-29T06:29:50;7.93;;;4.55;;
10596;SDS011;5346;48.766;8.674;2022-07-29T06:32:24;6.40;;;5.10;;
10596;SDS011;5346;48.766;8.674;2022-07-29T06:34:52;6.88;;;5.07;;
10596;SDS011;5346;48.766;8.674;2022-07-29T06:37:40;6.65;;;4.82;;
10596;SDS011;5346;48.766;8.674;2022-07-29T06:40:20;6.07;;;4.93;;
10596;SDS011;5346;48.766;8.674;2022-07-29T06:43:06;5.72;;;5.10;;
10596;SDS011;5346;48.766;8.674;2022-07-29T06:45:41;7.22;;;4.60;;
10596;SDS011;5346;48.766;8.674;2022-07-29T06:48:09;5.70;;;4.90;;
10596;SDS011;5346;48.766;8.674;2022-07-29T06:50:37;7.10;;;3.95;;
10596;SDS011;5346;48.766;8.674;2022-07-29T06:53:11;4.00;;;3.38;;
10596;SDS011;5346;48.766;8.674;2022-07-29T06:55:39;4.85;;;4.38;;
10596;SDS011;5346;48.766;8.674;2022-07-29T06:58:06;5.28;;;4.80;;
10596;SDS011;5346;48.766;8.674;2022-07-29T07:00:42;5.00;;;4.50;;
10596;SDS011;5346;48.766;8.674;2022-07-29T07:03:11;5.57;;;5.03;;
10596;SDS011;5346;48.766;8.674;2022-07-29T07:05:39;5.53;;;4.55;;
10596;SDS011;5346;48.766;8.674;2022-07-29T07:08:13;7.35;;;4.70;;
10596;SDS011;5346;48.766;8.674;2022-07-29T07:10:42;6.03;;;4.70;;
10596;SDS011;5346;48.766;8.674;2022-07-29T07:13:10;5.03;;;3.38;;
10596;SDS011;5346;48.766;8.674;2022-07-29T07:15:45;4.50;;;3.10;;
10596;SDS011;5346;48.766;8.674;2022-07-29T07:18:14;7.45;;;3.42;;
10596;SDS011;5346;48.766;8.674;2022-07-29T07:20:43;6.07;;;3.60;;
10596;SDS011;5346;48.766;8.674;2022-07-29T07:23:17;5.80;;;3.70;;
10596;SDS011;5346;48.766;8.674;2022-07-29T07:25:44;3.45;;;2.75;;
10596;SDS011;5346;48.766;8.674;2022-07-29T07:28:12;5.68;;;3.20;;
10596;SDS011;5346;48.766;8.674;2022-07-29T07:30:52;9.95;;;4.15;;
10596;SDS011;5346;48.766;8.674;2022-07-29T07:33:23;6.20;;;3.85;;
10596;SDS011;5346;48.766;8.674;2022-07-29T07:35:58;4.30;;;3.13;;
10596;SDS011;5346;48.766;8.674;2022-07-29T07:38:26;4.75;;;3.45;;
10596;SDS011;5346;48.766;8.674;2022-07-29T07:40:54;4.93;;;3.45;;
10596;SDS011;5346;48.766;8.674;2022-07-29T07:43:29;7.47;;;3.63;;
10596;SDS011;5346;48.766;8.674;2022-07-29T07:45:58;5.43;;;3.80;;
10596;SDS011;5346;48.766;8.674;2022-07-29T07:48:26;4.22;;;3.05;;
10596;SDS011;5346;48.766;8.674;2022-07-29T07:51:01;3.90;;;3.25;;
10596;SDS011;5346;48.766;8.674;2022-07-29T07:53:30;5.03;;;3.33;;
10596;SDS011;5346;48.766;8.674;2022-07-29T07:55:58;5.72;;;3.63;;
10596;SDS011;5346;48.766;8.674;2022-07-29T07:58:37;4.93;;;3.30;;
10596;SDS011;5346;48.766;8.674;2022-07-29T08:01:05;5.80;;;4.07;;
10596;SDS011;5346;48.766;8.674;2022-07-29T08:03:40;4.13;;;3.15;;
10596;SDS011;5346;48.766;8.674;2022-07-29T08:06:09;5.45;;;3.70;;
10596;SDS011;5346;48.766;8.674;2022-07-29T08:08:37;6.22;;;3.85;;
10596;SDS011;5346;48.766;8.674;2022-07-29T08:11:11;5.15;;;3.60;;
10596;SDS011;5346;48.766;8.674;2022-07-29T08:13:45;4.47;;;3.53;;
10596;SDS011;5346;48.766;8.674;2022-07-29T08:16:27;8.88;;;3.70;;
10596;SDS011;5346;48.766;8.674;2022-07-29T08:18:55;5.22;;;3.60;;
10596;SDS011;5346;48.766;8.674;2022-07-29T08:21:24;4.47;;;3.85;;
10596;SDS011;5346;48.766;8.674;2022-07-29T08:23:58;6.18;;;3.85;;
10596;SDS011;5346;48.766;8.674;2022-07-29T08:26:44;7.70;;;3.60;;
10596;SDS011;5346;48.766;8.674;2022-07-29T08:29:19;4.20;;;3.42;;
10596;SDS011;5346;48.766;8.674;2022-07-29T08:31:47;7.85;;;3.60;;
10596;SDS011;5346;48.766;8.674;2022-07-29T08:34:15;4.63;;;3.60;;
10596;SDS011;5346;48.766;8.674;2022-07-29T08:36:53;5.57;;;3.83;;
10596;SDS011;5346;48.766;8.674;2022-07-29T08:39:22;4.43;;;3.40;;
10596;SDS011;5346;48.766;8.674;2022-07-29T08:41:57;4.43;;;3.58;;
10596;SDS011;5346;48.766;8.674;2022-07-29T08:44:25;4.53;;;3.70;;
10596;SDS011;5346;48.766;8.674;2022-07-29T08:46:56;5.22;;;3.30;;
10596;SDS011;5346;48.766;8.674;2022-07-29T08:49:33;9.98;;;3.72;;
10596;SDS011;5346;48.766;8.674;2022-07-29T08:52:02;5.78;;;3.92;;
10596;SDS011;5346;48.766;8.674;2022-07-29T08:54:30;8.98;;;3.67;;
10596;SDS011;5346;48.766;8.674;2022-07-29T08:57:05;4.20;;;3.40;;
10596;SDS011;5346;48.766;8.674;2022-07-29T08:59:34;5.18;;;3.70;;
10596;SDS011;5346;48.766;8.674;2022-07-29T09:02:05;4.53;;;3.40;;
10596;SDS011;5346;48.766;8.674;2022-07-29T09:04:58;8.48;;;3.90;;
10596;SDS011;5346;48.766;8.674;2022-07-29T09:07:28;7.75;;;3.97;;
10596;SDS011;5346;48.766;8.674;2022-07-29T09:10:03;4.68;;;3.50;;
10596;SDS011;5346;48.766;8.674;2022-07-29T09:12:32;5.43;;;3.50;;
10596;SDS011;5346;48.766;8.674;2022-07-29T09:15:03;6.05;;;3.92;;
10596;SDS011;5346;48.766;8.674;2022-07-29T09:17:41;6.30;;;3.88;;
10596;SDS011;5346;48.766;8.674;2022-07-29T09:20:10;5.78;;;3.80;;
10596;SDS011;5346;48.766;8.674;2022-07-29T09:22:49;4.43;;;3.60;;
10596;SDS011;5346;48.766;8.674;2022-07-29T09:25:35;4.68;;;3.58;;
10596;SDS011;5346;48.766;8.674;2022-07-29T09:28:15;6.28;;;3.80;;
10596;SDS011;5346;48.766;8.674;2022-07-29T09:33:33;5.88;;;3.70;;
10596;SDS011;5346;48.766;8.674;2022-07-29T09:36:03;8.00;;;3.78;;
10596;SDS011;5346;48.766;8.674;2022-07-29T09:38:43;5.20;;;3.50;;
10596;SDS011;5346;48.766;8.674;2022-07-29T09:41:27;4.20;;;3.72;;
10596;SDS011;5346;48.766;8.674;2022-07-29T09:44:02;4.75;;;3.45;;
10596;SDS011;5346;48.766;8.674;2022-07-29T09:46:32;4.43;;;3.40;;
10596;SDS011;5346;48.766;8.674;2022-07-29T09:49:11;6.38;;;3.38;;
10596;SDS011;5346;48.766;8.674;2022-07-29T09:51:47;4.47;;;3.65;;
10596;SDS011;5346;48.766;8.674;2022-07-29T09:54:27;4.97;;;3.30;;
10596;SDS011;5346;48.766;8.674;2022-07-29T09:57:07;4.72;;;3.40;;
10596;SDS011;5346;48.766;8.674;2022-07-29T09:59:58;5.93;;;3.50;;
10596;SDS011;5346;48.766;8.674;2022-07-29T10:02:36;5.72;;;3.53;;
10596;SDS011;5346;48.766;8.674;2022-07-29T10:05:07;6.38;;;3.42;;
10596;SDS011;5346;48.766;8.674;2022-07-29T10:08:02;3.63;;;3.03;;
10596;SDS011;5346;48.766;8.674;2022-07-29T10:10:32;5.13;;;2.95;;
10596;SDS011;5346;48.766;8.674;2022-07-29T10:13:09;3.95;;;3.47;;
10596;SDS011;5346;48.766;8.674;2022-07-29T10:15:51;3.53;;;3.10;;
10596;SDS011;5346;48.766;8.674;2022-07-29T10:18:26;9.57;;;3.67;;
10596;SDS011;5346;48.766;8.674;2022-07-29T10:20:55;5.47;;;3.33;;
10596;SDS011;5346;48.766;8.674;2022-07-29T10:23:23;5.72;;;3.65;;
10596;SDS011;5346;48.766;8.674;2022-07-29T10:26:12;6.50;;;3.10;;
10596;SDS011;5346;48.766;8.674;2022-07-29T10:28:42;4.70;;;3.58;;
10596;SDS011;5346;48.766;8.674;2022-07-29T10:31:22;6.28;;;3.40;;
10596;SDS011;5346;48.766;8.674;2022-07-29T10:37:03;10.25;;;4.00;;
10596;SDS011;5346;48.766;8.674;2022-07-29T10:39:59;5.22;;;3.58;;
10596;SDS011;5346;48.766;8.674;2022-07-29T10:43:17;5.38;;;3.30;;
10596;SDS011;5346;48.766;8.674;2022-07-29T10:45:57;3.95;;;3.38;;
10596;SDS011;5346;48.766;8.674;2022-07-29T10:48:34;3.95;;;3.53;;
10596;SDS011;5346;48.766;8.674;2022-07-29T10:51:04;3.80;;;3.40;;
10596;SDS011;5346;48.766;8.674;2022-07-29T10:53:47;7.13;;;3.78;;
10596;SDS011;5346;48.766;8.674;2022-07-29T10:56:30;4.10;;;3.60;;
10596;SDS011;5346;48.766;8.674;2022-07-29T11:01:52;6.97;;;3.30;;
10596;SDS011;5346;48.766;8.674;2022-07-29T11:07:18;5.22;;;3.70;;
10596;SDS011;5346;48.766;8.674;2022-07-29T11:15:18;4.72;;;3.58;;
10596;SDS011;5346;48.766;8.674;2022-07-29T11:20:47;5.88;;;3.70;;
10596;SDS011;5346;48.766;8.674;2022-07-29T11:23:17;4.65;;;3.45;;
10596;SDS011;5346;48.766;8.674;2022-07-29T11:34:15;4.30;;;3.20;;
10596;SDS011;5346;48.766;8.674;2022-07-29T11:39:40;4.32;;;3.50;;
10596;SDS011;5346;48.766;8.674;2022-07-29T11:42:44;5.63;;;3.60;;
10596;SDS011;5346;48.766;8.674;2022-07-29T11:45:23;3.17;;;2.88;;
10596;SDS011;5346;48.766;8.674;2022-07-29T11:48:19;4.57;;;3.40;;
10596;SDS011;5346;48.766;8.674;2022-07-29T11:50:57;5.40;;;3.53;;
10596;SDS011;5346;48.766;8.674;2022-07-29T11:53:33;4.05;;;3.63;;
10596;SDS011;5346;48.766;8.674;2022-07-29T11:56:02;3.22;;;2.92;;
10596;SDS011;5346;48.766;8.674;2022-07-29T11:58:42;3.50;;;3.20;;
10596;SDS011;5346;48.766;8.674;2022-07-29T12:01:14;4.65;;;3.00;;
10596;SDS011;5346;48.766;8.674;2022-07-29T12:04:02;4.95;;;3.10;;
10596;SDS011;5346;48.766;8.674;2022-07-29T12:06:51;4.90;;;3.28;;
10596;SDS011;5346;48.766;8.674;2022-07-29T12:09:30;3.40;;;3.13;;
10596;SDS011;5346;48.766;8.674;2022-07-29T12:12:07;4.85;;;2.97;;
10596;SDS011;5346;48.766;8.674;2022-07-29T12:14:47;4.55;;;3.40;;
10596;SDS011;5346;48.766;8.674;2022-07-29T12:17:26;6.30;;;3.20;;
10596;SDS011;5346;48.766;8.674;2022-07-29T12:20:02;3.75;;;3.45;;
10596;SDS011;5346;48.766;8.674;2022-07-29T12:22:37;5.88;;;3.60;;
10596;SDS011;5346;48.766;8.674;2022-07-29T12:25:14;5.97;;;3.15;;
10596;SDS011;5346;48.766;8.674;2022-07-29T12:28:00;3.38;;;3.08;;
10596;SDS011;5346;48.766;8.674;2022-07-29T12:30:43;6.93;;;3.10;;
10596;SDS011;5346;48.766;8.674;2022-07-29T12:33:24;4.30;;;3.60;;
10596;SDS011;5346;48.766;8.674;2022-07-29T12:36:02;4.35;;;3.20;;
10596;SDS011;5346;48.766;8.674;2022-07-29T12:38:34;3.92;;;3.53;;
10596;SDS011;5346;48.766;8.674;2022-07-29T12:41:02;3.63;;;3.28;;
10596;SDS011;5346;48.766;8.674;2022-07-29T12:43:45;5.03;;;3.40;;
10596;SDS011;5346;48.766;8.674;2022-07-29T12:46:21;6.03;;;3.63;;
10596;SDS011;5346;48.766;8.674;2022-07-29T12:48:56;4.38;;;3.25;;
10596;SDS011;5346;48.766;8.674;2022-07-29T12:51:32;5.20;;;3.05;;
10596;SDS011;5346;48.766;8.674;2022-07-29T12:54:14;4.50;;;3.03;;
10596;SDS011;5346;48.766;8.674;2022-07-29T12:56:43;6.25;;;3.33;;
10596;SDS011;5346;48.766;8.674;2022-07-29T12:59:19;3.97;;;3.03;;
10596;SDS011;5346;48.766;8.674;2022-07-29T13:01:48;7.30;;;3.47;;
10596;SDS011;5346;48.766;8.674;2022-07-29T13:04:28;6.25;;;3.22;;
10596;SDS011;5346;48.766;8.674;2022-07-29T13:07:05;4.13;;;2.85;;
10596;SDS011;5346;48.766;8.674;2022-07-29T13:09:36;2.83;;;2.53;;
10596;SDS011;5346;48.766;8.674;2022-07-29T13:12:13;3.88;;;2.55;;
10596;SDS011;5346;48.766;8.674;2022-07-29T13:14:53;6.78;;;2.60;;
10596;SDS011;5346;48.766;8.674;2022-07-29T13:17:28;6.97;;;2.97;;
10596;SDS011;5346;48.766;8.674;2022-07-29T13:20:14;3.75;;;2.35;;
10596;SDS011;5346;48.766;8.674;2022-07-29T13:22:49;6.95;;;2.30;;
10596;SDS011;5346;48.766;8.674;2022-07-29T13:25:50;5.82;;;2.47;;
10596;SDS011;5346;48.766;8.674;2022-07-29T13:28:17;3.28;;;2.20;;
10596;SDS011;5346;48.766;8.674;2022-07-29T13:30:45;4.47;;;2.50;;
10596;SDS011;5346;48.766;8.674;2022-07-29T13:33:12;3.53;;;2.40;;
10596;SDS011;5346;48.766;8.674;2022-07-29T13:35:48;4.32;;;2.30;;
10596;SDS011;5346;48.766;8.674;2022-07-29T13:38:16;4.75;;;2.40;;
10596;SDS011;5346;48.766;8.674;2022-07-29T13:40:44;4.07;;;2.30;;
10596;SDS011;5346;48.766;8.674;2022-07-29T13:43:18;8.32;;;2.35;;
10596;SDS011;5346;48.766;8.674;2022-07-29T13:45:47;6.25;;;2.45;;
10596;SDS011;5346;48.766;8.674;2022-07-29T13:48:15;5.32;;;2.30;;
10596;SDS011;5346;48.766;8.674;2022-07-29T13:50:49;4.45;;;2.33;;
10596;SDS011;5346;48.766;8.674;2022-07-29T13:53:17;6.15;;;2.30;;
10596;SDS011;5346;48.766;8.674;2022-07-29T13:55:52;2.65;;;2.17;;
10596;SDS011;5346;48.766;8.674;2022-07-29T13:58:26;4.38;;;2.15;;
10596;SDS011;5346;48.766;8.674;2022-07-29T14:00:55;8.02;;;2.47;;
10596;SDS011;5346;48.766;8.674;2022-07-29T14:03:23;4.43;;;2.10;;
10596;SDS011;5346;48.766;8.674;2022-07-29T14:05:57;4.93;;;2.20;;
10596;SDS011;5346;48.766;8.674;2022-07-29T14:08:26;4.53;;;2.10;;
10596;SDS011;5346;48.766;8.674;2022-07-29T14:10:56;6.05;;;2.30;;
10596;SDS011;5346;48.766;8.674;2022-07-29T14:13:36;5.03;;;2.20;;
10596;SDS011;5346;48.766;8.674;2022-07-29T14:16:18;5.30;;;2.35;;
10596;SDS011;5346;48.766;8.674;2022-07-29T14:18:52;5.30;;;2.45;;
10596;SDS011;5346;48.766;8.674;2022-07-29T14:21:20;6.68;;;2.00;;
10596;SDS011;5346;48.766;8.674;2022-07-29T14:23:51;4.47;;;2.10;;
10596;SDS011;5346;48.766;8.674;2022-07-29T14:26:39;2.47;;;2.20;;
10596;SDS011;5346;48.766;8.674;2022-07-29T14:29:11;3.72;;;2.35;;
10596;SDS011;5346;48.766;8.674;2022-07-29T14:31:45;5.57;;;2.42;;
10596;SDS011;5346;48.766;8.674;2022-07-29T14:34:13;3.33;;;2.00;;
10596;SDS011;5346;48.766;8.674;2022-07-29T14:36:41;7.57;;;2.33;;
10596;SDS011;5346;48.766;8.674;2022-07-29T14:39:16;5.95;;;2.50;;
10596;SDS011;5346;48.766;8.674;2022-07-29T14:41:43;7.78;;;2.28;;
10596;SDS011;5346;48.766;8.674;2022-07-29T14:44:11;6.00;;;2.50;;
10596;SDS011;5346;48.766;8.674;2022-07-29T14:46:45;7.38;;;2.25;;
10596;SDS011;5346;48.766;8.674;2022-07-29T14:49:14;4.78;;;2.47;;
10596;SDS011;5346;48.766;8.674;2022-07-29T14:51:42;4.28;;;2.20;;
10596;SDS011;5346;48.766;8.674;2022-07-29T14:54:17;5.55;;;2.20;;
10596;SDS011;5346;48.766;8.674;2022-07-29T14:56:45;5.50;;;2.10;;
10596;SDS011;5346;48.766;8.674;2022-07-29T14:59:15;4.75;;;2.60;;
10596;SDS011;5346;48.766;8.674;2022-07-29T15:01:50;7.57;;;2.55;;
10596;SDS011;5346;48.766;8.674;2022-07-29T15:04:17;4.22;;;2.17;;
10596;SDS011;5346;48.766;8.674;2022-07-29T15:06:45;3.92;;;2.50;;
10596;SDS011;5346;48.766;8.674;2022-07-29T15:09:21;6.70;;;2.65;;
10596;SDS011;5346;48.766;8.674;2022-07-29T15:11:49;6.22;;;2.40;;
10596;SDS011;5346;48.766;8.674;2022-07-29T15:14:17;6.53;;;2.47;;
10596;SDS011;5346;48.766;8.674;2022-07-29T15:16:51;6.57;;;2.78;;
10596;SDS011;5346;48.766;8.674;2022-07-29T15:19:19;8.30;;;2.65;;
10596;SDS011;5346;48.766;8.674;2022-07-29T15:21:46;7.28;;;2.83;;
10596;SDS011;5346;48.766;8.674;2022-07-29T15:24:25;4.78;;;2.60;;
10596;SDS011;5346;48.766;8.674;2022-07-29T15:26:53;5.35;;;2.47;;
10596;SDS011;5346;48.766;8.674;2022-07-29T15:29:37;6.65;;;2.80;;
10596;SDS011;5346;48.766;8.674;2022-07-29T15:32:05;7.90;;;2.80;;
10596;SDS011;5346;48.766;8.674;2022-07-29T15:34:48;6.07;;;3.03;;
10596;SDS011;5346;48.766;8.674;2022-07-29T15:37:16;4.57;;;2.40;;
10596;SDS011;5346;48.766;8.674;2022-07-29T15:40:13;3.22;;;2.92;;
10596;SDS011;5346;48.766;8.674;2022-07-29T15:42:41;4.05;;;2.58;;
10596;SDS011;5346;48.766;8.674;2022-07-29T15:45:15;6.70;;;2.90;;
10596;SDS011;5346;48.766;8.674;2022-07-29T15:47:43;4.65;;;2.80;;
10596;SDS011;5346;48.766;8.674;2022-07-29T15:50:10;8.57;;;2.63;;
10596;SDS011;5346;48.766;8.674;2022-07-29T15:52:48;6.20;;;2.58;;
10596;SDS011;5346;48.766;8.674;2022-07-29T15:55:16;6.05;;;2.25;;
10596;SDS011;5346;48.766;8.674;2022-07-29T15:57:44;6.72;;;2.83;;
10596;SDS011;5346;48.766;8.674;2022-07-29T16:00:25;8.77;;;2.58;;
10596;SDS011;5346;48.766;8.674;2022-07-29T16:02:53;6.30;;;2.42;;
10596;SDS011;5346;48.766;8.674;2022-07-29T16:05:27;6.15;;;2.30;;
10596;SDS011;5346;48.766;8.674;2022-07-29T16:07:55;8.98;;;2.55;;
10596;SDS011;5346;48.766;8.674;2022-07-29T16:10:25;3.83;;;2.67;;
10596;SDS011;5346;48.766;8.674;2022-07-29T16:12:59;4.72;;;2.50;;
10596;SDS011;5346;48.766;8.674;2022-07-29T16:15:34;5.28;;;2.47;;
10596;SDS011;5346;48.766;8.674;2022-07-29T16:18:08;3.35;;;2.35;;
10596;SDS011;5346;48.766;8.674;2022-07-29T16:20:36;5.93;;;2.55;;
10596;SDS011;5346;48.766;8.674;2022-07-29T16:23:03;4.07;;;2.47;;
10596;SDS011;5346;48.766;8.674;2022-07-29T16:25:39;4.50;;;2.50;;
10596;SDS011;5346;48.766;8.674;2022-07-29T16:28:25;6.30;;;2.83;;
10596;SDS011;5346;48.766;8.674;2022-07-29T16:31:00;2.58;;;2.38;;
10596;SDS011;5346;48.766;8.674;2022-07-29T16:33:28;4.03;;;2.67;;
10596;SDS011;5346;48.766;8.674;2022-07-29T16:36:16;3.05;;;2.50;;